WetterOnline ( http://www.wetteronline.de )

Wetter aktuell Bremervörde

Aktuelles Wetter: Bremervörde (5m)

6-stündlich | Neueste Meldungen
Ortszeit Temperatur Wetter
Sa, 19.01. 19:00 -1.0° C wolkenlos
Sa, 19.01. 13:00 2.2° C fast wolkenlos
Sa, 19.01. 7:00 -3.1° C bedeckt
Sa, 19.01. 1:00 -1.7° C bewölkt
Fr, 18.01. 19:00 -0.1° C bedeckt
Fr, 18.01. 13:00 0.6° C bedeckt
Fr, 18.01. 7:00 -3.1° C wolkenlos
Fr, 18.01. 1:00 -0.7° C leicht bewölkt
Ortszeit Temperatur Wetter
Sa, 19.01. 23:30 -3.7° C wolkig
Sa, 19.01. 23:10 -3.3° C wolkig
Sa, 19.01. 23:00 -3.5° C leicht bewölkt
Sa, 19.01. 22:50 -3.5° C leicht bewölkt
Sa, 19.01. 22:40 -3.0° C leicht bewölkt
Sa, 19.01. 22:30 -2.9° C leicht bewölkt
Sa, 19.01. 22:00 -2.5° C leicht bewölkt
Sa, 19.01. 21:30 -2.2° C wolkenlos
Sa, 19.01. 21:00 -2.5° C wolkenlos
Sa, 19.01. 20:30 -1.8° C wolkenlos
Sa, 19.01. 20:00 -1.8° C fast wolkenlos
Ortszeit Relative Feuchte Sichtweite
Sa, 19.01. 19:00 80% 19 km
Sa, 19.01. 13:00 73% 10 km
Sa, 19.01. 7:00 89% 3.7 km
Sa, 19.01. 1:00 88% 9 km
Fr, 18.01. 19:00 92% 13 km
Fr, 18.01. 13:00 92% 22 km
Fr, 18.01. 7:00 88% 50 km
Fr, 18.01. 1:00 86% 70 km
Ortszeit Relative Feuchte Sichtweite
Sa, 19.01. 23:30 86% 8 km
Sa, 19.01. 23:10 85% -
Sa, 19.01. 23:00 86% 9 km
Sa, 19.01. 22:50 86% -
Sa, 19.01. 22:40 85% -
Sa, 19.01. 22:30 83% 12 km
Sa, 19.01. 22:00 82% 13 km
Sa, 19.01. 21:30 82% 14 km
Sa, 19.01. 21:00 82% 16 km
Sa, 19.01. 20:30 82% 17 km
Sa, 19.01. 20:00 82% 17 km
Ortszeit Niederschlagsmenge Niederschlagsart
Sa, 19.01. 19:00 0.0 l/m2 in 12 Std. -
Sa, 19.01. 13:00 0.0 l/m2 in 6 Std. -
Sa, 19.01. 7:00 0.0 l/m2 in 12 Std. -
Sa, 19.01. 1:00 0.0 l/m2 in 6 Std. -
Fr, 18.01. 19:00 0.3 l/m2 in 12 Std. Sprühregen
Fr, 18.01. 13:00 0.3 l/m2 in 6 Std. Schnee, Regen
Fr, 18.01. 7:00 0.2 l/m2 in 12 Std. -
Fr, 18.01. 1:00 0.2 l/m2 in 6 Std. Schnee, Sprühregen
Ortszeit Niederschlagsmenge Niederschlagsart
Sa, 19.01. 23:30 0.0 l/m2 in 1 Std. -
Sa, 19.01. 23:10 keine Meldung -
Sa, 19.01. 23:00 0.0 l/m2 in 1 Std. -
Sa, 19.01. 22:50 keine Meldung -
Sa, 19.01. 22:40 keine Meldung -
Sa, 19.01. 22:30 0.0 l/m2 in 1 Std. -
Sa, 19.01. 22:00 0.0 l/m2 in 1 Std. -
Sa, 19.01. 21:30 0.0 l/m2 in 1 Std. -
Sa, 19.01. 21:00 0.0 l/m2 in 1 Std. -
Sa, 19.01. 20:30 0.0 l/m2 in 1 Std. -
Sa, 19.01. 20:00 0.0 l/m2 in 1 Std. -
Ortszeit Stärke Spitze Richtung
km/h Bft. km/h Grad Sektor
Sa, 19.01. 19:00 6 1 13 130° SO
Sa, 19.01. 13:00 7 2 15 170° S
Sa, 19.01. 7:00 4 1 14 180° S
Sa, 19.01. 1:00 7 2 14 230° SW
Fr, 18.01. 19:00 9 2 28 230° SW
Fr, 18.01. 13:00 19 3 33 260° W
Fr, 18.01. 7:00 9 2 17 230° SW
Fr, 18.01. 1:00 7 2 65 330° NW
Ortszeit Stärke Spitze Richtung
km/h Bft. km/h Grad Sektor
Sa, 19.01. 23:30 9 2 13 130° SO
Sa, 19.01. 23:10 9 2 - 130° SO
Sa, 19.01. 23:00 9 2 13 120° SO
Sa, 19.01. 22:50 9 2 - 120° SO
Sa, 19.01. 22:40 9 2 - 130° SO
Sa, 19.01. 22:30 11 2 14 140° SO
Sa, 19.01. 22:00 7 2 11 130° SO
Sa, 19.01. 21:30 7 2 11 140° SO
Sa, 19.01. 21:00 7 2 11 130° SO
Sa, 19.01. 20:30 7 2 11 130° SO
Sa, 19.01. 20:00 7 2 7 140° SO
Ortszeit Untergrenze Bedeckung Gattung
total tief tief mittel hoch
Sa, 19.01. 19:00 - 0/8 0/8 - - -
Sa, 19.01. 13:00 8400 m 1/8 0/8 - - -
Sa, 19.01. 7:00 3900 m 8/8 8/8 - - -
Sa, 19.01. 1:00 4500 m 8/8 7/8 - - -
Fr, 18.01. 19:00 6300 m 8/8 8/8 - - -
Fr, 18.01. 13:00 210 m 8/8 8/8 - - -
Fr, 18.01. 7:00 - 0/8 0/8 - - -
Fr, 18.01. 1:00 900 m 4/8 4/8 - - -
Ortszeit Bedeckungsgrad in Achtel und Wolkenuntergrenze
Sa, 19.01. 23:30 8(8400m)
Sa, 19.01. 23:10 1(7500m) 8(8400m)
Sa, 19.01. 23:00 4(7500m) 6(8700m) 7(8700m)
Sa, 19.01. 22:50 4(7500m) 6(8700m)
Sa, 19.01. 22:40 4(7800m)
Sa, 19.01. 22:30 2(7800m) 5(8700m)
Sa, 19.01. 22:00 3(9000m)
Sa, 19.01. 21:30 keine Wolken
Sa, 19.01. 21:00 keine Wolken
Sa, 19.01. 20:30 keine Wolken
Sa, 19.01. 20:00 1(2700m)
Ortszeit Luftdruck NN (hPa) Tendenz (hPa in 3 Std.)
Sa, 19.01. 19:00 1018 - 0,3
Sa, 19.01. 13:00 1020 - 0,6
Sa, 19.01. 7:00 1020 - 0,4
Sa, 19.01. 1:00 1020 + 0,3
Fr, 18.01. 19:00 1019 + 0,4
Fr, 18.01. 13:00 1018 + 0,9
Fr, 18.01. 7:00 1015 + 2,1
Fr, 18.01. 1:00 1010 + 5,3
Ortszeit Luftdruck NN (hPa) Tendenz (hPa in 3 Std.)
Sa, 19.01. 23:30 1018 0,0
Sa, 19.01. 23:10 1018 keine Meldung
Sa, 19.01. 23:00 1018 0,0
Sa, 19.01. 22:50 1018 keine Meldung
Sa, 19.01. 22:40 1018 keine Meldung
Sa, 19.01. 22:30 1018 - 0,1
Sa, 19.01. 22:00 1018 - 0,1
Sa, 19.01. 21:30 1018 + 0,1
Sa, 19.01. 21:00 1018 - 0,1
Sa, 19.01. 20:30 1018 - 0,1
Sa, 19.01. 20:00 1018 - 0,1
Ortszeit Schneehöhe (cm)
Sa, 19.01. 19:00 0
Sa, 19.01. 13:00 0
Sa, 19.01. 7:00 0
Sa, 19.01. 1:00 0
Fr, 18.01. 19:00 0
Fr, 18.01. 13:00 0
Fr, 18.01. 7:00 0
Fr, 18.01. 1:00 0
Ortszeit Schneehöhe (cm)
Sa, 19.01. 23:30 0
Sa, 19.01. 23:10 0
Sa, 19.01. 23:00 0
Sa, 19.01. 22:50 0
Sa, 19.01. 22:40 0
Sa, 19.01. 22:30 0
Sa, 19.01. 22:00 0
Sa, 19.01. 21:30 0
Sa, 19.01. 21:00 0
Sa, 19.01. 20:30 0
Sa, 19.01. 20:00 0
Link zu dieser Seite / Seite empfehlen

Das Wetter in ...